sensor_id;sensor_type;location;lat;lon;timestamp;pressure;altitude;pressure_sealevel;temperature;humidity
62680;BME280;68213;40.528;44.712;2023-07-28T00:00:14;80433.28;;;16.26;61.30
62680;BME280;68213;40.528;44.712;2023-07-28T00:01:14;80419.75;;;16.17;61.52
62680;BME280;68213;40.528;44.712;2023-07-28T00:02:15;80415.59;;;16.12;61.50
62680;BME280;68213;40.528;44.712;2023-07-28T00:03:16;80432.75;;;16.29;61.26
62680;BME280;68213;40.528;44.712;2023-07-28T00:04:16;80429.41;;;16.29;61.36
62680;BME280;68213;40.528;44.712;2023-07-28T00:05:17;80430.75;;;16.30;61.19
62680;BME280;68213;40.528;44.712;2023-07-28T00:06:18;80437.44;;;16.31;60.83
62680;BME280;68213;40.528;44.712;2023-07-28T00:07:18;80431.56;;;16.34;60.42
62680;BME280;68213;40.528;44.712;2023-07-28T00:08:19;80436.25;;;16.36;60.44
62680;BME280;68213;40.528;44.712;2023-07-28T00:09:19;80431.03;;;16.38;60.22
62680;BME280;68213;40.528;44.712;2023-07-28T00:10:20;80426.47;;;16.41;60.21
62680;BME280;68213;40.528;44.712;2023-07-28T00:11:21;80425.84;;;16.42;60.13
62680;BME280;68213;40.528;44.712;2023-07-28T00:12:21;80433.88;;;16.44;60.16
62680;BME280;68213;40.528;44.712;2023-07-28T00:13:22;80430.56;;;16.44;59.87
62680;BME280;68213;40.528;44.712;2023-07-28T00:14:23;80434.50;;;16.43;60.06
62680;BME280;68213;40.528;44.712;2023-07-28T00:15:25;80421.84;;;16.41;60.07
62680;BME280;68213;40.528;44.712;2023-07-28T00:17:34;80429.75;;;16.39;60.05
62680;BME280;68213;40.528;44.712;2023-07-28T00:18:35;80425.66;;;16.36;60.07
62680;BME280;68213;40.528;44.712;2023-07-28T00:19:35;80425.59;;;16.34;60.41
62680;BME280;68213;40.528;44.712;2023-07-28T00:20:36;80422.94;;;16.34;60.52
62680;BME280;68213;40.528;44.712;2023-07-28T00:21:37;80411.38;;;16.25;60.73
62680;BME280;68213;40.528;44.712;2023-07-28T00:22:38;80413.38;;;16.25;60.76
62680;BME280;68213;40.528;44.712;2023-07-28T00:23:38;80414.78;;;16.28;60.84
62680;BME280;68213;40.528;44.712;2023-07-28T00:24:39;80431.03;;;16.18;61.30
62680;BME280;68213;40.528;44.712;2023-07-28T00:25:40;80421.44;;;16.09;61.54
62680;BME280;68213;40.528;44.712;2023-07-28T00:26:40;80415.91;;;16.00;61.63
62680;BME280;68213;40.528;44.712;2023-07-28T00:27:41;80423.56;;;16.12;61.48
62680;BME280;68213;40.528;44.712;2023-07-28T00:28:42;80425.66;;;16.16;61.07
62680;BME280;68213;40.528;44.712;2023-07-28T00:29:42;80424.25;;;16.13;61.23
62680;BME280;68213;40.528;44.712;2023-07-28T00:30:43;80428.25;;;16.14;60.84
62680;BME280;68213;40.528;44.712;2023-07-28T00:31:44;80422.97;;;16.14;60.54
62680;BME280;68213;40.528;44.712;2023-07-28T00:32:45;80418.31;;;16.14;60.42
62680;BME280;68213;40.528;44.712;2023-07-28T00:33:46;80427.56;;;16.13;60.40
62680;BME280;68213;40.528;44.712;2023-07-28T00:34:47;80427.56;;;16.13;60.32
62680;BME280;68213;40.528;44.712;2023-07-28T00:35:49;80430.09;;;16.09;60.47
62680;BME280;68213;40.528;44.712;2023-07-28T00:36:49;80421.41;;;16.07;60.59
62680;BME280;68213;40.528;44.712;2023-07-28T00:37:50;80423.44;;;16.08;60.44
62680;BME280;68213;40.528;44.712;2023-07-28T00:38:51;80417.94;;;16.02;60.61
62680;BME280;68213;40.528;44.712;2023-07-28T00:39:51;80427.44;;;16.09;60.37
62680;BME280;68213;40.528;44.712;2023-07-28T00:40:52;80421.41;;;16.07;60.29
62680;BME280;68213;40.528;44.712;2023-07-28T00:41:52;80422.69;;;16.06;60.59
62680;BME280;68213;40.528;44.712;2023-07-28T00:42:53;80425.19;;;16.01;60.61
62680;BME280;68213;40.528;44.712;2023-07-28T00:43:54;80421.19;;;16.00;60.94
62680;BME280;68213;40.528;44.712;2023-07-28T00:44:54;80419.13;;;15.99;60.75
62680;BME280;68213;40.528;44.712;2023-07-28T00:45:55;80428.34;;;15.96;61.01
62680;BME280;68213;40.528;44.712;2023-07-28T00:46:56;80421.03;;;15.96;61.25
62680;BME280;68213;40.528;44.712;2023-07-28T00:48:00;80427.59;;;15.93;61.48
62680;BME280;68213;40.528;44.712;2023-07-28T00:49:01;80422.13;;;15.89;61.70
62680;BME280;68213;40.528;44.712;2023-07-28T00:50:04;80415.16;;;15.80;61.85
62680;BME280;68213;40.528;44.712;2023-07-28T00:51:06;80362.75;;;15.38;62.05
62680;BME280;68213;40.528;44.712;2023-07-28T00:52:08;80415.41;;;15.68;62.24
62680;BME280;68213;40.528;44.712;2023-07-28T00:53:08;80419.72;;;15.77;62.47
62680;BME280;68213;40.528;44.712;2023-07-28T00:54:09;80431.06;;;15.80;62.08
62680;BME280;68213;40.528;44.712;2023-07-28T00:55:11;80421.16;;;15.80;62.11
62680;BME280;68213;40.528;44.712;2023-07-28T00:56:13;80406.06;;;15.65;62.25
62680;BME280;68213;40.528;44.712;2023-07-28T00:57:14;80427.66;;;15.77;62.22
62680;BME280;68213;40.528;44.712;2023-07-28T00:58:15;80422.38;;;15.77;62.26
62680;BME280;68213;40.528;44.712;2023-07-28T00:59:16;80423.72;;;15.78;62.09
62680;BME280;68213;40.528;44.712;2023-07-28T01:00:17;80416.41;;;15.77;62.36
62680;BME280;68213;40.528;44.712;2023-07-28T01:01:18;80420.41;;;15.78;62.24
62680;BME280;68213;40.528;44.712;2023-07-28T01:02:19;80421.00;;;15.76;62.40
62680;BME280;68213;40.528;44.712;2023-07-28T01:03:22;80422.91;;;15.74;62.38
62680;BME280;68213;40.528;44.712;2023-07-28T01:04:23;80422.84;;;15.71;62.19
62680;BME280;68213;40.528;44.712;2023-07-28T01:05:28;80424.81;;;15.71;62.48
62680;BME280;68213;40.528;44.712;2023-07-28T01:07:08;80424.72;;;15.69;62.37
62680;BME280;68213;40.528;44.712;2023-07-28T01:08:42;80418.75;;;15.68;62.68
62680;BME280;68213;40.528;44.712;2023-07-28T01:09:52;80425.28;;;15.65;62.88
62680;BME280;68213;40.528;44.712;2023-07-28T01:10:53;80414.47;;;15.59;63.01
62680;BME280;68213;40.528;44.712;2023-07-28T01:11:56;80425.81;;;15.62;63.06
62680;BME280;68213;40.528;44.712;2023-07-28T01:12:57;80420.47;;;15.60;63.42
62680;BME280;68213;40.528;44.712;2023-07-28T01:13:58;80419.84;;;15.61;63.19
62680;BME280;68213;40.528;44.712;2023-07-28T01:14:59;80419.75;;;15.59;63.26
62680;BME280;68213;40.528;44.712;2023-07-28T01:15:59;80389.50;;;15.46;63.14
62680;BME280;68213;40.528;44.712;2023-07-28T01:17:01;80413.84;;;15.61;62.97
62680;BME280;68213;40.528;44.712;2023-07-28T01:18:01;80417.88;;;15.62;63.04
62680;BME280;68213;40.528;44.712;2023-07-28T01:19:02;80413.78;;;15.59;63.15
62680;BME280;68213;40.528;44.712;2023-07-28T01:20:03;80414.63;;;15.63;63.19
62680;BME280;68213;40.528;44.712;2023-07-28T01:21:08;80415.28;;;15.64;62.90
62680;BME280;68213;40.528;44.712;2023-07-28T01:22:26;80418.03;;;15.66;62.97
62680;BME280;68213;40.528;44.712;2023-07-28T01:23:52;80420.66;;;15.66;63.12
62680;BME280;68213;40.528;44.712;2023-07-28T01:25:18;80419.38;;;15.67;62.93
62680;BME280;68213;40.528;44.712;2023-07-28T01:26:37;80394.88;;;15.48;63.15
62680;BME280;68213;40.528;44.712;2023-07-28T01:27:39;80420.59;;;15.64;63.14
62680;BME280;68213;40.528;44.712;2023-07-28T01:28:43;80401.63;;;15.51;63.00
62680;BME280;68213;40.528;44.712;2023-07-28T01:29:45;80416.56;;;15.63;63.17
62680;BME280;68213;40.528;44.712;2023-07-28T01:30:46;80419.22;;;15.63;63.18
62680;BME280;68213;40.528;44.712;2023-07-28T01:31:47;80420.59;;;15.64;63.26
62680;BME280;68213;40.528;44.712;2023-07-28T01:32:48;80418.59;;;15.64;62.98
62680;BME280;68213;40.528;44.712;2023-07-28T01:33:49;80416.66;;;15.65;63.27
62680;BME280;68213;40.528;44.712;2023-07-28T01:34:49;80418.59;;;15.64;63.09
62680;BME280;68213;40.528;44.712;2023-07-28T01:35:50;80392.69;;;15.43;63.28
62680;BME280;68213;40.528;44.712;2023-07-28T01:36:52;80417.81;;;15.60;63.55
62680;BME280;68213;40.528;44.712;2023-07-28T01:37:52;80420.47;;;15.60;63.66
62680;BME280;68213;40.528;44.712;2023-07-28T01:38:53;80417.00;;;15.55;63.80
62680;BME280;68213;40.528;44.712;2023-07-28T01:39:54;80418.19;;;15.52;64.00
62680;BME280;68213;40.528;44.712;2023-07-28T01:40:56;80418.81;;;15.50;63.94
62680;BME280;68213;40.528;44.712;2023-07-28T01:41:57;80418.81;;;15.50;63.92
62680;BME280;68213;40.528;44.712;2023-07-28T01:42:58;80421.38;;;15.48;64.05
62680;BME280;68213;40.528;44.712;2023-07-28T01:43:59;80422.75;;;15.49;64.08
62680;BME280;68213;40.528;44.712;2023-07-28T01:44:59;80424.09;;;15.50;64.14
62680;BME280;68213;40.528;44.712;2023-07-28T01:46:00;80417.44;;;15.49;64.25
62680;BME280;68213;40.528;44.712;2023-07-28T01:47:01;80422.75;;;15.49;64.00
62680;BME280;68213;40.528;44.712;2023-07-28T01:48:01;80433.25;;;15.47;64.33
62680;BME280;68213;40.528;44.712;2023-07-28T01:49:02;80425.22;;;15.45;64.33
62680;BME280;68213;40.528;44.712;2023-07-28T01:50:03;80396.91;;;15.30;64.54
62680;BME280;68213;40.528;44.712;2023-07-28T01:51:03;80427.22;;;15.45;64.46
62680;BME280;68213;40.528;44.712;2023-07-28T01:52:04;80422.53;;;15.43;64.81
62680;BME280;68213;40.528;44.712;2023-07-28T01:53:06;80419.19;;;15.43;64.78
62680;BME280;68213;40.528;44.712;2023-07-28T01:54:06;80415.66;;;15.36;64.68
62680;BME280;68213;40.528;44.712;2023-07-28T01:55:07;80425.03;;;15.39;64.82
62680;BME280;68213;40.528;44.712;2023-07-28T01:56:08;80426.31;;;15.38;64.82
62680;BME280;68213;40.528;44.712;2023-07-28T01:57:09;80423.06;;;15.39;64.94
62680;BME280;68213;40.528;44.712;2023-07-28T01:58:09;80414.28;;;15.35;64.57
62680;BME280;68213;40.528;44.712;2023-07-28T01:59:10;80425.03;;;15.39;64.77
62680;BME280;68213;40.528;44.712;2023-07-28T02:00:11;80421.00;;;15.38;64.90
62680;BME280;68213;40.528;44.712;2023-07-28T02:01:14;80425.72;;;15.39;65.07
62680;BME280;68213;40.528;44.712;2023-07-28T02:02:15;80408.16;;;15.30;65.06
62680;BME280;68213;40.528;44.712;2023-07-28T02:03:16;80419.81;;;15.41;65.00
62680;BME280;68213;40.528;44.712;2023-07-28T02:04:16;80421.84;;;15.43;65.08
62680;BME280;68213;40.528;44.712;2023-07-28T02:05:17;80422.53;;;15.43;64.56
62680;BME280;68213;40.528;44.712;2023-07-28T02:06:18;80425.19;;;15.43;64.23
62680;BME280;68213;40.528;44.712;2023-07-28T02:07:19;80417.06;;;15.39;64.09
62680;BME280;68213;40.528;44.712;2023-07-28T02:08:20;80423.91;;;15.44;64.16
62680;BME280;68213;40.528;44.712;2023-07-28T02:09:20;80422.59;;;15.45;64.10
62680;BME280;68213;40.528;44.712;2023-07-28T02:10:26;80429.25;;;15.46;64.18
62680;BME280;68213;40.528;44.712;2023-07-28T02:11:26;80425.22;;;15.45;64.59
62680;BME280;68213;40.528;44.712;2023-07-28T02:12:27;80425.22;;;15.45;64.67
62680;BME280;68213;40.528;44.712;2023-07-28T02:13:28;80424.66;;;15.47;64.32
62680;BME280;68213;40.528;44.712;2023-07-28T02:14:28;80427.28;;;15.47;64.31
62680;BME280;68213;40.528;44.712;2023-07-28T02:15:29;80423.94;;;15.46;64.12
62680;BME280;68213;40.528;44.712;2023-07-28T02:16:30;80410.91;;;15.32;64.12
62680;BME280;68213;40.528;44.712;2023-07-28T02:17:32;80420.72;;;15.48;64.12
62680;BME280;68213;40.528;44.712;2023-07-28T02:18:33;80419.41;;;15.49;64.18
62680;BME280;68213;40.528;44.712;2023-07-28T02:19:33;80422.75;;;15.49;64.21
62680;BME280;68213;40.528;44.712;2023-07-28T02:20:34;80423.41;;;15.50;64.42
62680;BME280;68213;40.528;44.712;2023-07-28T02:21:36;80417.44;;;15.49;64.48
62680;BME280;68213;40.528;44.712;2023-07-28T02:22:36;80414.78;;;15.49;64.28
62680;BME280;68213;40.528;44.712;2023-07-28T02:23:37;80417.44;;;15.49;64.80
62680;BME280;68213;40.528;44.712;2023-07-28T02:24:38;80420.09;;;15.49;64.67
62680;BME280;68213;40.528;44.712;2023-07-28T02:25:41;80420.16;;;15.51;64.52
62680;BME280;68213;40.528;44.712;2023-07-28T02:26:42;80416.16;;;15.50;64.42
62680;BME280;68213;40.528;44.712;2023-07-28T02:27:43;80426.75;;;15.50;65.01
62680;BME280;68213;40.528;44.712;2023-07-28T02:28:43;80424.78;;;15.51;64.61
62680;BME280;68213;40.528;44.712;2023-07-28T02:30:46;80423.41;;;15.50;65.10
62680;BME280;68213;40.528;44.712;2023-07-28T02:31:48;80429.47;;;15.52;64.97
62680;BME280;68213;40.528;44.712;2023-07-28T02:32:49;80418.81;;;15.50;65.00
62680;BME280;68213;40.528;44.712;2023-07-28T02:33:49;80422.94;;;15.55;65.15
62680;BME280;68213;40.528;44.712;2023-07-28T02:34:50;80419.69;;;15.57;65.22
62680;BME280;68213;40.528;44.712;2023-07-28T02:35:51;80419.03;;;15.57;65.08
62680;BME280;68213;40.528;44.712;2023-07-28T02:36:51;80429.63;;;15.57;65.17
62680;BME280;68213;40.528;44.712;2023-07-28T02:37:54;80424.41;;;15.59;65.02
62680;BME280;68213;40.528;44.712;2023-07-28T02:38:55;80432.34;;;15.59;65.34
62680;BME280;68213;40.528;44.712;2023-07-28T02:39:56;80429.69;;;15.59;65.17
62680;BME280;68213;40.528;44.712;2023-07-28T02:40:56;80411.44;;;15.49;65.23
62680;BME280;68213;40.528;44.712;2023-07-28T02:41:57;80426.56;;;15.64;65.02
62680;BME280;68213;40.528;44.712;2023-07-28T02:42:57;80428.00;;;15.67;65.37
62680;BME280;68213;40.528;44.712;2023-07-28T02:43:58;80426.72;;;15.68;65.27
62680;BME280;68213;40.528;44.712;2023-07-28T02:44:59;80428.06;;;15.69;65.33
62680;BME280;68213;40.528;44.712;2023-07-28T02:46:00;80412.44;;;15.58;65.34
62680;BME280;68213;40.528;44.712;2023-07-28T02:47:01;80438.19;;;15.75;65.07
62680;BME280;68213;40.528;44.712;2023-07-28T02:48:01;80424.72;;;15.69;65.08
62680;BME280;68213;40.528;44.712;2023-07-28T02:49:02;80435.63;;;15.77;65.17
62680;BME280;68213;40.528;44.712;2023-07-28T02:50:04;80426.38;;;15.78;65.16
62680;BME280;68213;40.528;44.712;2023-07-28T02:51:05;80437.72;;;15.81;64.90
62680;BME280;68213;40.528;44.712;2023-07-28T02:52:06;80431.75;;;15.80;65.13
62680;BME280;68213;40.528;44.712;2023-07-28T02:53:07;80433.13;;;15.81;64.99
62680;BME280;68213;40.528;44.712;2023-07-28T02:54:07;80433.13;;;15.81;65.04
62680;BME280;68213;40.528;44.712;2023-07-28T02:55:08;80439.19;;;15.84;64.94
62680;BME280;68213;40.528;44.712;2023-07-28T02:56:09;80433.28;;;15.85;65.19
62680;BME280;68213;40.528;44.712;2023-07-28T02:57:12;80433.97;;;15.86;65.08
62680;BME280;68213;40.528;44.712;2023-07-28T02:58:13;80430.63;;;15.85;65.14
62680;BME280;68213;40.528;44.712;2023-07-28T03:00:25;80428.06;;;15.88;65.57
62680;BME280;68213;40.528;44.712;2023-07-28T03:01:29;80417.81;;;15.80;65.56
62680;BME280;68213;40.528;44.712;2023-07-28T03:02:30;80431.38;;;15.88;65.30
62680;BME280;68213;40.528;44.712;2023-07-28T03:03:31;80415.16;;;15.80;65.39
62680;BME280;68213;40.528;44.712;2023-07-28T03:04:31;80430.84;;;15.92;65.03
62680;BME280;68213;40.528;44.712;2023-07-28T03:05:32;80428.25;;;15.94;64.97
62680;BME280;68213;40.528;44.712;2023-07-28T03:06:33;80424.31;;;15.95;65.11
62680;BME280;68213;40.528;44.712;2023-07-28T03:07:33;80429.63;;;15.95;64.94
62680;BME280;68213;40.528;44.712;2023-07-28T03:08:34;80426.97;;;15.95;64.82
62680;BME280;68213;40.528;44.712;2023-07-28T03:09:35;80434.31;;;15.96;64.76
62680;BME280;68213;40.528;44.712;2023-07-28T03:10:35;80437.66;;;15.97;64.96
62680;BME280;68213;40.528;44.712;2023-07-28T03:11:36;80428.38;;;15.98;64.85
62680;BME280;68213;40.528;44.712;2023-07-28T03:12:37;80433.00;;;15.97;64.92
62680;BME280;68213;40.528;44.712;2023-07-28T03:13:37;80430.44;;;15.99;64.47
62680;BME280;68213;40.528;44.712;2023-07-28T03:14:39;80429.75;;;15.99;64.89
62680;BME280;68213;40.528;44.712;2023-07-28T03:15:40;80420.66;;;16.04;64.07
62680;BME280;68213;40.528;44.712;2023-07-28T03:16:41;80424.78;;;16.09;64.10
62680;BME280;68213;40.528;44.712;2023-07-28T03:17:42;80423.63;;;16.14;63.62
62680;BME280;68213;40.528;44.712;2023-07-28T03:18:43;80427.09;;;16.19;64.06
62680;BME280;68213;40.528;44.712;2023-07-28T03:19:43;80431.19;;;16.22;64.46
62680;BME280;68213;40.528;44.712;2023-07-28T03:20:46;80425.94;;;16.24;64.10
62680;BME280;68213;40.528;44.712;2023-07-28T03:21:47;80424.03;;;16.27;63.79
62680;BME280;68213;40.528;44.712;2023-07-28T03:22:47;80429.41;;;16.29;64.50
62680;BME280;68213;40.528;44.712;2023-07-28T03:23:48;80428.66;;;16.26;64.74
62680;BME280;68213;40.528;44.712;2023-07-28T03:24:48;80425.88;;;16.22;65.35
62680;BME280;68213;40.528;44.712;2023-07-28T03:25:50;80429.63;;;16.15;66.22
62680;BME280;68213;40.528;44.712;2023-07-28T03:26:50;80420.22;;;16.12;65.81
62680;BME280;68213;40.528;44.712;2023-07-28T03:27:51;80421.06;;;16.16;66.28
62680;BME280;68213;40.528;44.712;2023-07-28T03:28:53;80429.09;;;16.18;66.26
62680;BME280;68213;40.528;44.712;2023-07-28T03:29:53;80431.22;;;16.24;66.14
62680;BME280;68213;40.528;44.712;2023-07-28T03:30:54;80424.09;;;16.29;66.25
62680;BME280;68213;40.528;44.712;2023-07-28T03:31:55;80426.91;;;16.33;66.26
62680;BME280;68213;40.528;44.712;2023-07-28T03:32:55;80427.00;;;16.37;66.34
62680;BME280;68213;40.528;44.712;2023-07-28T03:33:56;80427.84;;;16.42;65.85
62680;BME280;68213;40.528;44.712;2023-07-28T03:34:57;80428.66;;;16.46;66.04
62680;BME280;68213;40.528;44.712;2023-07-28T03:35:58;80427.47;;;16.52;66.26
62680;BME280;68213;40.528;44.712;2023-07-28T03:36:58;80430.28;;;16.56;66.22
62680;BME280;68213;40.528;44.712;2023-07-28T03:37:59;80430.38;;;16.60;66.04
62680;BME280;68213;40.528;44.712;2023-07-28T03:38:59;80435.84;;;16.64;66.44
62680;BME280;68213;40.528;44.712;2023-07-28T03:40:00;80430.66;;;16.68;65.43
62680;BME280;68213;40.528;44.712;2023-07-28T03:41:01;80437.44;;;16.73;65.35
62680;BME280;68213;40.528;44.712;2023-07-28T03:42:02;80437.56;;;16.77;65.36
62680;BME280;68213;40.528;44.712;2023-07-28T03:43:03;80437.63;;;16.79;65.34
62680;BME280;68213;40.528;44.712;2023-07-28T03:44:04;80428.38;;;16.80;66.15
62680;BME280;68213;40.528;44.712;2023-07-28T03:45:05;80437.28;;;16.89;66.42
62680;BME280;68213;40.528;44.712;2023-07-28T03:46:06;80434.13;;;16.95;67.60
62680;BME280;68213;40.528;44.712;2023-07-28T03:47:06;80438.22;;;16.98;66.97
62680;BME280;68213;40.528;44.712;2023-07-28T03:48:07;80437.03;;;17.03;66.99
62680;BME280;68213;40.528;44.712;2023-07-28T03:49:07;80435.81;;;17.06;67.91
62680;BME280;68213;40.528;44.712;2023-07-28T03:50:08;80428.59;;;17.09;68.01
62680;BME280;68213;40.528;44.712;2023-07-28T03:51:09;80432.06;;;17.13;67.83
62680;BME280;68213;40.528;44.712;2023-07-28T03:52:09;80426.13;;;17.15;67.96
62680;BME280;68213;40.528;44.712;2023-07-28T03:53:10;80433.53;;;17.19;66.02
62680;BME280;68213;40.528;44.712;2023-07-28T03:54:11;80421.53;;;17.18;66.19
62680;BME280;68213;40.528;44.712;2023-07-28T03:55:11;80426.53;;;17.29;65.91
62680;BME280;68213;40.528;44.712;2023-07-28T03:56:12;80428.69;;;17.35;66.10
62680;BME280;68213;40.528;44.712;2023-07-28T03:57:13;80432.84;;;17.40;66.29
62680;BME280;68213;40.528;44.712;2023-07-28T03:58:13;80373.44;;;17.07;66.05
62680;BME280;68213;40.528;44.712;2023-07-28T03:59:14;80427.13;;;17.50;65.59
62680;BME280;68213;40.528;44.712;2023-07-28T04:00:16;80421.25;;;17.54;64.93
62680;BME280;68213;40.528;44.712;2023-07-28T04:01:16;80430.75;;;17.61;64.58
62680;BME280;68213;40.528;44.712;2023-07-28T04:02:21;80427.56;;;17.65;64.35
62680;BME280;68213;40.528;44.712;2023-07-28T04:04:35;80423.06;;;17.71;63.52
62680;BME280;68213;40.528;44.712;2023-07-28T04:05:37;80425.41;;;17.83;62.91
62680;BME280;68213;40.528;44.712;2023-07-28T04:06:48;80424.94;;;17.91;62.44
62680;BME280;68213;40.528;44.712;2023-07-28T04:07:53;80420.19;;;17.87;61.36
62680;BME280;68213;40.528;44.712;2023-07-28T04:08:54;80427.91;;;18.01;61.08
62680;BME280;68213;40.528;44.712;2023-07-28T04:09:55;80429.38;;;18.06;60.92
62680;BME280;68213;40.528;44.712;2023-07-28T04:10:55;80423.53;;;18.12;61.05
62680;BME280;68213;40.528;44.712;2023-07-28T04:11:56;80425.69;;;18.18;61.91
62680;BME280;68213;40.528;44.712;2023-07-28T04:12:57;80429.75;;;18.21;60.62
62680;BME280;68213;40.528;44.712;2023-07-28T04:13:58;80426.50;;;18.24;60.26
62680;BME280;68213;40.528;44.712;2023-07-28T04:14:58;80424.03;;;18.31;60.21
62680;BME280;68213;40.528;44.712;2023-07-28T04:15:59;80429.50;;;18.37;60.12
62680;BME280;68213;40.528;44.712;2023-07-28T04:17:00;80426.94;;;18.41;61.48
62680;BME280;68213;40.528;44.712;2023-07-28T04:18:01;80423.09;;;18.46;60.68
62680;BME280;68213;40.528;44.712;2023-07-28T04:19:01;80425.06;;;18.46;61.22
62680;BME280;68213;40.528;44.712;2023-07-28T04:20:02;80428.56;;;18.52;61.28
62680;BME280;68213;40.528;44.712;2023-07-28T04:21:03;80434.72;;;18.59;60.25
62680;BME280;68213;40.528;44.712;2023-07-28T04:22:05;80433.47;;;18.62;59.73
62680;BME280;68213;40.528;44.712;2023-07-28T04:23:06;80434.19;;;18.65;59.51
62680;BME280;68213;40.528;44.712;2023-07-28T04:24:08;80422.91;;;18.66;59.31
62680;BME280;68213;40.528;44.712;2023-07-28T04:25:08;80432.91;;;18.66;59.11
62680;BME280;68213;40.528;44.712;2023-07-28T04:26:09;80433.63;;;18.68;59.23
62680;BME280;68213;40.528;44.712;2023-07-28T04:27:10;80431.09;;;18.73;59.19
62680;BME280;68213;40.528;44.712;2023-07-28T04:28:10;80431.69;;;18.71;57.90
62680;BME280;68213;40.528;44.712;2023-07-28T04:29:11;80426.41;;;18.73;57.82
62680;BME280;68213;40.528;44.712;2023-07-28T04:30:11;80435.25;;;18.80;57.57
62680;BME280;68213;40.528;44.712;2023-07-28T04:31:13;80421.16;;;18.75;57.57
62680;BME280;68213;40.528;44.712;2023-07-28T04:32:13;80432.75;;;18.88;57.86
62680;BME280;68213;40.528;44.712;2023-07-28T04:33:14;80430.16;;;18.90;57.88
62680;BME280;68213;40.528;44.712;2023-07-28T04:34:15;80413.31;;;18.81;58.28
62680;BME280;68213;40.528;44.712;2023-07-28T04:35:16;80420.97;;;18.95;58.05
62680;BME280;68213;40.528;44.712;2023-07-28T04:36:16;80431.81;;;19.01;57.85
62680;BME280;68213;40.528;44.712;2023-07-28T04:37:17;80433.25;;;19.07;57.70
62680;BME280;68213;40.528;44.712;2023-07-28T04:38:19;80442.00;;;19.11;57.21
62680;BME280;68213;40.528;44.712;2023-07-28T04:39:22;80436.00;;;19.11;56.28
62680;BME280;68213;40.528;44.712;2023-07-28T04:40:22;80433.59;;;19.21;56.18
62680;BME280;68213;40.528;44.712;2023-07-28T04:41:23;80437.75;;;19.28;55.78
62680;BME280;68213;40.528;44.712;2023-07-28T04:42:24;80432.56;;;19.34;55.90
62680;BME280;68213;40.528;44.712;2023-07-28T04:43:24;80426.03;;;19.42;55.76
62680;BME280;68213;40.528;44.712;2023-07-28T04:44:25;80436.84;;;19.48;55.67
62680;BME280;68213;40.528;44.712;2023-07-28T04:45:27;80422.38;;;19.57;55.29
62680;BME280;68213;40.528;44.712;2023-07-28T04:46:28;80429.16;;;19.62;55.16
62680;BME280;68213;40.528;44.712;2023-07-28T04:47:29;80429.34;;;19.71;55.85
62680;BME280;68213;40.528;44.712;2023-07-28T04:48:29;80435.50;;;19.77;55.29
62680;BME280;68213;40.528;44.712;2023-07-28T04:49:30;80430.25;;;19.81;54.82
62680;BME280;68213;40.528;44.712;2023-07-28T04:50:30;80427.53;;;19.79;54.86
62680;BME280;68213;40.528;44.712;2023-07-28T04:51:33;80439.09;;;19.88;54.75
62680;BME280;68213;40.528;44.712;2023-07-28T04:52:34;80441.81;;;19.92;54.49
62680;BME280;68213;40.528;44.712;2023-07-28T04:53:36;80431.84;;;19.93;54.60
62680;BME280;68213;40.528;44.712;2023-07-28T04:54:36;80435.09;;;19.89;53.58
62680;BME280;68213;40.528;44.712;2023-07-28T04:55:37;80432.28;;;19.83;54.00
62680;BME280;68213;40.528;44.712;2023-07-28T04:56:38;80432.00;;;19.71;53.33
62680;BME280;68213;40.528;44.712;2023-07-28T04:57:38;80438.16;;;19.77;51.94
62680;BME280;68213;40.528;44.712;2023-07-28T04:58:39;80432.19;;;19.79;51.93
62680;BME280;68213;40.528;44.712;2023-07-28T04:59:40;80431.53;;;19.78;52.41
62680;BME280;68213;40.528;44.712;2023-07-28T05:00:40;80417.91;;;19.66;52.22
62680;BME280;68213;40.528;44.712;2023-07-28T05:01:41;80431.03;;;19.86;52.39
62680;BME280;68213;40.528;44.712;2023-07-28T05:02:42;80436.41;;;19.88;52.31
62680;BME280;68213;40.528;44.712;2023-07-28T05:03:42;80443.09;;;19.89;52.51
62680;BME280;68213;40.528;44.712;2023-07-28T05:04:43;80443.16;;;19.91;52.76
62680;BME280;68213;40.528;44.712;2023-07-28T05:05:44;80439.16;;;19.92;53.80
62680;BME280;68213;40.528;44.712;2023-07-28T05:06:47;80436.50;;;19.92;53.71
62680;BME280;68213;40.528;44.712;2023-07-28T05:07:48;80447.84;;;19.93;52.13
62680;BME280;68213;40.528;44.712;2023-07-28T05:08:48;80444.59;;;19.96;52.04
62680;BME280;68213;40.528;44.712;2023-07-28T05:09:49;80443.94;;;19.98;51.90
62680;BME280;68213;40.528;44.712;2023-07-28T05:10:50;80437.97;;;20.00;51.88
62680;BME280;68213;40.528;44.712;2023-07-28T05:11:50;80441.47;;;20.06;51.65
62680;BME280;68213;40.528;44.712;2023-07-28T05:12:51;80436.25;;;20.12;51.69
62680;BME280;68213;40.528;44.712;2023-07-28T05:13:51;80430.31;;;20.16;51.28
62680;BME280;68213;40.528;44.712;2023-07-28T05:14:53;80437.09;;;20.21;52.20
62680;BME280;68213;40.528;44.712;2023-07-28T05:15:53;80434.47;;;20.23;52.69
62680;BME280;68213;40.528;44.712;2023-07-28T05:16:54;80438.53;;;20.26;53.20
62680;BME280;68213;40.528;44.712;2023-07-28T05:17:55;80424.72;;;20.04;53.32
62680;BME280;68213;40.528;44.712;2023-07-28T05:18:58;80438.44;;;20.22;51.41
62680;BME280;68213;40.528;44.712;2023-07-28T05:19:58;80435.06;;;20.20;51.92
62680;BME280;68213;40.528;44.712;2023-07-28T05:20:59;80435.75;;;20.20;51.96
62680;BME280;68213;40.528;44.712;2023-07-28T05:21:59;80439.78;;;20.21;51.72
62680;BME280;68213;40.528;44.712;2023-07-28T05:23:00;80441.19;;;20.26;51.06
62680;BME280;68213;40.528;44.712;2023-07-28T05:24:01;80441.31;;;20.33;50.98
62680;BME280;68213;40.528;44.712;2023-07-28T05:25:01;80434.56;;;20.29;51.74
62680;BME280;68213;40.528;44.712;2023-07-28T05:26:04;80437.28;;;20.32;52.83